< Typhoon 201408 2014 Season Typhoon 201410 >
Typhoon 201409 (RAMMASUN)
General InformationTrack Information on Google MapsDetailed Wind InformationForecast History on Google MapsAccess Analytics MapList of All Images || NewsDisaster Info.WeblogTrackbackTyphoon FrontTwiphoonTyphoon Now!Typhoon ImaginationDisaster Info. XMLResourceGoogle EarthGE AnimationAtom FeedGeoJSON
Detalied Best Track (Time Zone = UTC)
Year Month Day Hour Lat. Long. Pressure (hPa) Wind (kt) Class Image Chart
2014 7 9 06 8.0 154.3 1006 0 2 Image Chart
2014 7 9 12 8.0 153.6 1008 0 2 Image Chart
2014 7 9 18 8.4 152.8 1006 0 2 Image Chart
2014 7 10 00 8.8 152.0 1008 0 2 Image Chart
2014 7 10 06 9.8 151.4 1006 0 2 Image Chart
2014 7 10 12 10.8 150.4 1008 0 2 Image Chart
2014 7 10 18 11.8 149.5 1006 0 2 Image Chart
2014 7 11 00 12.3 148.8 1006 0 2 Image Chart
2014 7 11 06 13.0 147.5 1006 0 2 Image Chart
2014 7 11 12 13.6 146.8 1008 0 2 Image Chart
2014 7 11 18 13.9 145.9 1008 0 2 Image Chart
2014 7 12 00 13.9 144.3 1006 0 2 Image Chart
2014 7 12 06 13.4 142.7 1004 35 3 Image Chart
2014 7 12 12 13.5 141.1 1002 35 3 Image Chart
2014 7 12 18 13.6 139.7 1000 35 3 Image Chart
2014 7 13 00 13.7 137.5 998 40 3 Image Chart
2014 7 13 06 13.5 135.9 998 40 3 Image Chart
2014 7 13 12 13.4 134.2 994 40 3 Image Chart
2014 7 13 18 13.4 132.4 990 45 3 Image Chart
2014 7 14 00 13.1 130.6 985 50 4 Image Chart
2014 7 14 06 12.8 129.2 980 55 4 Image Chart
2014 7 14 12 12.7 128.2 975 55 4 Image Chart
2014 7 14 18 12.6 126.9 965 65 5 Image Chart
2014 7 15 00 12.7 125.6 960 70 5 Image Chart
2014 7 15 06 12.9 124.7 950 80 5 Image Chart
2014 7 15 12 13.4 123.4 945 85 5 Image Chart
2014 7 15 18 14.0 121.9 945 85 5 Image Chart
2014 7 16 00 14.2 120.4 960 70 5 Image Chart
2014 7 16 06 15.1 119.0 965 65 5 Image Chart
2014 7 16 12 15.1 117.6 970 60 4 Image Chart
2014 7 16 18 15.6 116.8 970 60 4 Image Chart
2014 7 17 00 16.2 115.6 960 65 5 Image Chart
2014 7 17 06 16.9 114.9 960 65 5 Image Chart
2014 7 17 12 17.5 114.3 955 70 5 Image Chart
2014 7 17 18 18.5 113.4 945 80 5 Image Chart
2014 7 18 00 19.1 112.3 940 85 5 Image Chart
2014 7 18 06 20.0 111.2 935 90 5 Image Chart
2014 7 18 12 20.3 110.2 940 90 5 Image Chart
2014 7 18 18 21.0 109.4 955 70 5 Image Chart
2014 7 19 00 21.8 108.1 965 50 4 Image Chart
2014 7 19 06 22.2 107.0 980 40 3 Image Chart
2014 7 19 12 22.5 106.1 990 35 3 Image Chart
2014 7 19 18 22.7 104.4 996 0 2 Image Chart
2014 7 20 00 23.0 103.6 998 0 2 Image Chart
Japan Meteorological Agency Best Track Data | Correction Date : 2014-08-19
< Typhoon 201408 2014 Season Typhoon 201410 >

Help